sensor_id;sensor_type;location;lat;lon;timestamp;pressure;altitude;pressure_sealevel;temperature;humidity
37634;BME280;32048;49.902;22.508;2023-02-26T00:01:23;97288.94;;;1.43;100.00
37634;BME280;32048;49.902;22.508;2023-02-26T00:03:52;97289.97;;;1.39;100.00
37634;BME280;32048;49.902;22.508;2023-02-26T00:06:20;97308.34;;;1.35;100.00
37634;BME280;32048;49.902;22.508;2023-02-26T00:08:47;97308.59;;;1.29;100.00
37634;BME280;32048;49.902;22.508;2023-02-26T00:11:14;97311.28;;;1.25;100.00
37634;BME280;32048;49.902;22.508;2023-02-26T00:13:43;97312.94;;;1.28;100.00
37634;BME280;32048;49.902;22.508;2023-02-26T00:18:43;97302.47;;;1.30;100.00
37634;BME280;32048;49.902;22.508;2023-02-26T00:21:16;97298.13;;;1.30;100.00
37634;BME280;32048;49.902;22.508;2023-02-26T00:23:44;97293.81;;;1.29;100.00
37634;BME280;32048;49.902;22.508;2023-02-26T00:26:11;97306.88;;;1.28;100.00
37634;BME280;32048;49.902;22.508;2023-02-26T00:28:38;97315.47;;;1.30;100.00
37634;BME280;32048;49.902;22.508;2023-02-26T00:31:06;97318.25;;;1.25;100.00
37634;BME280;32048;49.902;22.508;2023-02-26T00:33:34;97322.72;;;1.21;100.00
37634;BME280;32048;49.902;22.508;2023-02-26T00:41:51;97329.16;;;1.11;100.00
37634;BME280;32048;49.902;22.508;2023-02-26T00:44:18;97327.31;;;1.15;100.00
37634;BME280;32048;49.902;22.508;2023-02-26T00:46:55;97320.41;;;1.14;100.00
37634;BME280;32048;49.902;22.508;2023-02-26T00:55:09;97328.81;;;1.20;100.00
37634;BME280;32048;49.902;22.508;2023-02-26T00:57:37;97329.78;;;1.18;100.00
37634;BME280;32048;49.902;22.508;2023-02-26T01:00:04;97337.47;;;1.21;100.00
37634;BME280;32048;49.902;22.508;2023-02-26T01:02:35;97336.56;;;1.22;100.00
37634;BME280;32048;49.902;22.508;2023-02-26T01:05:02;97341.72;;;1.23;100.00
37634;BME280;32048;49.902;22.508;2023-02-26T01:07:46;97351.25;;;1.23;100.00
37634;BME280;32048;49.902;22.508;2023-02-26T01:10:15;97357.38;;;1.22;100.00
37634;BME280;32048;49.902;22.508;2023-02-26T01:12:42;97353.00;;;1.22;100.00
37634;BME280;32048;49.902;22.508;2023-02-26T01:15:10;97347.84;;;1.21;100.00
37634;BME280;32048;49.902;22.508;2023-02-26T01:17:49;97339.97;;;1.24;100.00
37634;BME280;32048;49.902;22.508;2023-02-26T01:20:21;97348.66;;;1.23;100.00
37634;BME280;32048;49.902;22.508;2023-02-26T01:22:59;97358.97;;;1.26;100.00
37634;BME280;32048;49.902;22.508;2023-02-26T01:26:35;97349.56;;;1.22;100.00
37634;BME280;32048;49.902;22.508;2023-02-26T01:28:40;97350.28;;;1.25;100.00
37634;BME280;32048;49.902;22.508;2023-02-26T01:31:16;97354.59;;;1.27;100.00
37634;BME280;32048;49.902;22.508;2023-02-26T01:33:52;97353.75;;;1.26;100.00
37634;BME280;32048;49.902;22.508;2023-02-26T01:36:21;97359.81;;;1.27;100.00
37634;BME280;32048;49.902;22.508;2023-02-26T01:38:58;97364.25;;;1.23;100.00
37634;BME280;32048;49.902;22.508;2023-02-26T01:45:10;97359.97;;;1.22;100.00
37634;BME280;32048;49.902;22.508;2023-02-26T01:50:22;97356.34;;;1.26;100.00
37634;BME280;32048;49.902;22.508;2023-02-26T01:53:14;97342.44;;;1.27;100.00
37634;BME280;32048;49.902;22.508;2023-02-26T01:55:45;97327.75;;;1.26;100.00
37634;BME280;32048;49.902;22.508;2023-02-26T01:58:15;97330.34;;;1.26;100.00
37634;BME280;32048;49.902;22.508;2023-02-26T02:00:43;97333.75;;;1.28;100.00
37634;BME280;32048;49.902;22.508;2023-02-26T02:03:10;97336.28;;;1.30;100.00
37634;BME280;32048;49.902;22.508;2023-02-26T02:05:44;97351.16;;;1.26;100.00
37634;BME280;32048;49.902;22.508;2023-02-26T02:08:13;97360.63;;;1.27;100.00
37634;BME280;32048;49.902;22.508;2023-02-26T02:10:42;97366.06;;;1.21;100.00
37634;BME280;32048;49.902;22.508;2023-02-26T02:26:38;97428.53;;;1.19;100.00
37634;BME280;32048;49.902;22.508;2023-02-26T02:29:23;97430.28;;;1.19;100.00
37634;BME280;32048;49.902;22.508;2023-02-26T02:34:51;97421.63;;;1.18;100.00
37634;BME280;32048;49.902;22.508;2023-02-26T02:37:28;97420.03;;;1.14;100.00
37634;BME280;32048;49.902;22.508;2023-02-26T02:42:48;97417.72;;;1.07;100.00
37634;BME280;32048;49.902;22.508;2023-02-26T02:45:46;97422.13;;;1.04;100.00
37634;BME280;32048;49.902;22.508;2023-02-26T02:48:28;97443.75;;;1.05;100.00
37634;BME280;32048;49.902;22.508;2023-02-26T02:51:00;97451.50;;;1.07;100.00
37634;BME280;32048;49.902;22.508;2023-02-26T02:53:35;97454.97;;;1.07;100.00
37634;BME280;32048;49.902;22.508;2023-02-26T02:56:07;97457.66;;;1.04;100.00
37634;BME280;32048;49.902;22.508;2023-02-26T02:58:41;97455.13;;;1.02;100.00
37634;BME280;32048;49.902;22.508;2023-02-26T03:01:12;97458.69;;;1.00;100.00
37634;BME280;32048;49.902;22.508;2023-02-26T03:03:54;97459.59;;;0.99;100.00
37634;BME280;32048;49.902;22.508;2023-02-26T03:06:22;97462.03;;;1.03;100.00
37634;BME280;32048;49.902;22.508;2023-02-26T03:08:51;97472.44;;;1.03;100.00
37634;BME280;32048;49.902;22.508;2023-02-26T03:11:19;97489.03;;;0.99;100.00
37634;BME280;32048;49.902;22.508;2023-02-26T03:13:47;97508.06;;;1.00;100.00
37634;BME280;32048;49.902;22.508;2023-02-26T03:16:48;97509.91;;;0.96;100.00
37634;BME280;32048;49.902;22.508;2023-02-26T03:19:27;97496.13;;;0.94;100.00
37634;BME280;32048;49.902;22.508;2023-02-26T03:25:09;97502.25;;;0.92;100.00
37634;BME280;32048;49.902;22.508;2023-02-26T03:30:30;97530.03;;;0.90;100.00
37634;BME280;32048;49.902;22.508;2023-02-26T03:33:20;97546.44;;;0.92;100.00
37634;BME280;32048;49.902;22.508;2023-02-26T03:35:54;97552.44;;;0.94;100.00
37634;BME280;32048;49.902;22.508;2023-02-26T03:39:02;97553.31;;;0.94;100.00
37634;BME280;32048;49.902;22.508;2023-02-26T03:41:30;97557.72;;;0.92;100.00
37634;BME280;32048;49.902;22.508;2023-02-26T03:44:08;97565.44;;;0.94;100.00
37634;BME280;32048;49.902;22.508;2023-02-26T03:46:43;97561.88;;;0.96;100.00
37634;BME280;32048;49.902;22.508;2023-02-26T03:49:16;97558.56;;;0.93;100.00
37634;BME280;32048;49.902;22.508;2023-02-26T03:51:45;97562.91;;;0.92;100.00
37634;BME280;32048;49.902;22.508;2023-02-26T03:54:19;97551.59;;;0.93;100.00
37634;BME280;32048;49.902;22.508;2023-02-26T03:56:47;97536.13;;;0.90;100.00
37634;BME280;32048;49.902;22.508;2023-02-26T03:59:16;97563.00;;;0.89;100.00
37634;BME280;32048;49.902;22.508;2023-02-26T04:02:04;97555.25;;;0.88;100.00
37634;BME280;32048;49.902;22.508;2023-02-26T04:04:44;97540.50;;;0.88;100.00
37634;BME280;32048;49.902;22.508;2023-02-26T04:07:15;97542.28;;;0.88;100.00
37634;BME280;32048;49.902;22.508;2023-02-26T04:09:45;97541.31;;;0.90;100.00
37634;BME280;32048;49.902;22.508;2023-02-26T04:12:13;97556.09;;;0.88;100.00
37634;BME280;32048;49.902;22.508;2023-02-26T04:14:40;97555.19;;;0.89;100.00
37634;BME280;32048;49.902;22.508;2023-02-26T04:17:07;97541.34;;;0.89;100.00
37634;BME280;32048;49.902;22.508;2023-02-26T04:19:34;97546.72;;;0.84;100.00
37634;BME280;32048;49.902;22.508;2023-02-26T04:22:02;97551.91;;;0.84;100.00
37634;BME280;32048;49.902;22.508;2023-02-26T04:24:29;97554.53;;;0.82;100.00
37634;BME280;32048;49.902;22.508;2023-02-26T04:26:56;97555.41;;;0.83;100.00
37634;BME280;32048;49.902;22.508;2023-02-26T04:29:23;97568.50;;;0.80;100.00
37634;BME280;32048;49.902;22.508;2023-02-26T04:31:50;97574.59;;;0.79;100.00
37634;BME280;32048;49.902;22.508;2023-02-26T04:34:17;97580.63;;;0.79;100.00
37634;BME280;32048;49.902;22.508;2023-02-26T04:36:44;97595.47;;;0.76;100.00
37634;BME280;32048;49.902;22.508;2023-02-26T04:39:11;97592.94;;;0.74;100.00
37634;BME280;32048;49.902;22.508;2023-02-26T04:41:38;97599.81;;;0.75;100.00
37634;BME280;32048;49.902;22.508;2023-02-26T04:44:06;97604.25;;;0.72;100.00
37634;BME280;32048;49.902;22.508;2023-02-26T04:46:33;97612.84;;;0.74;100.00
37634;BME280;32048;49.902;22.508;2023-02-26T04:49:00;97618.03;;;0.74;100.00
37634;BME280;32048;49.902;22.508;2023-02-26T04:51:27;97612.84;;;0.74;100.00
37634;BME280;32048;49.902;22.508;2023-02-26T04:53:54;97589.41;;;0.75;100.00
37634;BME280;32048;49.902;22.508;2023-02-26T04:56:21;97578.22;;;0.73;100.00
37634;BME280;32048;49.902;22.508;2023-02-26T04:58:48;97580.03;;;0.71;100.00
37634;BME280;32048;49.902;22.508;2023-02-26T05:01:16;97592.13;;;0.72;100.00
37634;BME280;32048;49.902;22.508;2023-02-26T05:03:43;97600.88;;;0.70;100.00
37634;BME280;32048;49.902;22.508;2023-02-26T05:06:10;97617.38;;;0.67;100.00
37634;BME280;32048;49.902;22.508;2023-02-26T05:08:37;97613.06;;;0.68;100.00
37634;BME280;32048;49.902;22.508;2023-02-26T05:11:09;97616.69;;;0.62;100.00
37634;BME280;32048;49.902;22.508;2023-02-26T05:13:36;97634.06;;;0.60;100.00
37634;BME280;32048;49.902;22.508;2023-02-26T05:16:05;97640.09;;;0.60;100.00
37634;BME280;32048;49.902;22.508;2023-02-26T05:18:32;97628.81;;;0.61;100.00
37634;BME280;32048;49.902;22.508;2023-02-26T05:21:00;97631.47;;;0.60;100.00
37634;BME280;32048;49.902;22.508;2023-02-26T05:23:27;97624.56;;;0.59;100.00
37634;BME280;32048;49.902;22.508;2023-02-26T05:25:55;97626.38;;;0.57;100.00
37634;BME280;32048;49.902;22.508;2023-02-26T05:28:23;97637.56;;;0.59;100.00
37634;BME280;32048;49.902;22.508;2023-02-26T05:30:51;97641.94;;;0.57;100.00
37634;BME280;32048;49.902;22.508;2023-02-26T05:33:18;97653.28;;;0.54;100.00
37634;BME280;32048;49.902;22.508;2023-02-26T05:35:46;97658.47;;;0.54;100.00
37634;BME280;32048;49.902;22.508;2023-02-26T05:38:13;97666.31;;;0.53;100.00
37634;BME280;32048;49.902;22.508;2023-02-26T05:40:41;97684.31;;;0.59;100.00
37634;BME280;32048;49.902;22.508;2023-02-26T05:43:08;97687.75;;;0.59;100.00
37634;BME280;32048;49.902;22.508;2023-02-26T05:45:35;97691.19;;;0.60;100.00
37634;BME280;32048;49.902;22.508;2023-02-26T05:48:02;97679.81;;;0.66;100.00
37634;BME280;32048;49.902;22.508;2023-02-26T05:50:29;97688.41;;;0.68;100.00
37634;BME280;32048;49.902;22.508;2023-02-26T05:52:56;97691.88;;;0.67;100.00
37634;BME280;32048;49.902;22.508;2023-02-26T05:55:24;97697.03;;;0.68;100.00
37634;BME280;32048;49.902;22.508;2023-02-26T05:57:50;97695.31;;;0.67;100.00
37634;BME280;32048;49.902;22.508;2023-02-26T06:00:18;97697.84;;;0.70;100.00
37634;BME280;32048;49.902;22.508;2023-02-26T06:02:45;97699.59;;;0.70;100.00
37634;BME280;32048;49.902;22.508;2023-02-26T06:05:12;97712.53;;;0.71;100.00
37634;BME280;32048;49.902;22.508;2023-02-26T06:07:39;97701.19;;;0.74;100.00
37634;BME280;32048;49.902;22.508;2023-02-26T06:10:07;97708.91;;;0.77;100.00
37634;BME280;32048;49.902;22.508;2023-02-26T06:12:35;97721.84;;;0.78;100.00
37634;BME280;32048;49.902;22.508;2023-02-26T06:15:03;97730.50;;;0.79;100.00
37634;BME280;32048;49.902;22.508;2023-02-26T06:17:30;97732.13;;;0.83;100.00
37634;BME280;32048;49.902;22.508;2023-02-26T06:19:59;97743.31;;;0.85;100.00
37634;BME280;32048;49.902;22.508;2023-02-26T06:22:26;97742.38;;;0.88;100.00
37634;BME280;32048;49.902;22.508;2023-02-26T06:24:53;97745.75;;;0.90;100.00
37634;BME280;32048;49.902;22.508;2023-02-26T06:27:22;97749.25;;;0.90;100.00
37634;BME280;32048;49.902;22.508;2023-02-26T06:29:49;97755.31;;;0.89;100.00
37634;BME280;32048;49.902;22.508;2023-02-26T06:32:16;97771.84;;;0.87;100.00
37634;BME280;32048;49.902;22.508;2023-02-26T06:34:43;97778.78;;;0.88;100.00
37634;BME280;32048;49.902;22.508;2023-02-26T06:37:10;97776.19;;;0.88;100.00
37634;BME280;32048;49.902;22.508;2023-02-26T06:39:37;97785.63;;;0.90;100.00
37634;BME280;32048;49.902;22.508;2023-02-26T06:42:04;97801.16;;;0.92;100.00
37634;BME280;32048;49.902;22.508;2023-02-26T06:44:31;97807.28;;;0.89;100.00
37634;BME280;32048;49.902;22.508;2023-02-26T06:46:58;97807.41;;;0.86;100.00
37634;BME280;32048;49.902;22.508;2023-02-26T06:49:26;97809.09;;;0.87;100.00
37634;BME280;32048;49.902;22.508;2023-02-26T06:51:53;97816.84;;;0.89;100.00
37634;BME280;32048;49.902;22.508;2023-02-26T06:54:20;97822.81;;;0.92;100.00
37634;BME280;32048;49.902;22.508;2023-02-26T06:56:47;97832.34;;;0.92;100.00
37634;BME280;32048;49.902;22.508;2023-02-26T06:59:14;97833.16;;;0.94;100.00
37634;BME280;32048;49.902;22.508;2023-02-26T07:01:41;97810.44;;;1.00;100.00
37634;BME280;32048;49.902;22.508;2023-02-26T07:04:09;97815.50;;;1.05;100.00
37634;BME280;32048;49.902;22.508;2023-02-26T07:06:36;97813.56;;;1.12;100.00
37634;BME280;32048;49.902;22.508;2023-02-26T07:09:03;97810.66;;;1.22;100.00
37634;BME280;32048;49.902;22.508;2023-02-26T07:11:30;97809.53;;;1.31;100.00
37634;BME280;32048;49.902;22.508;2023-02-26T07:13:57;97824.13;;;1.37;100.00
37634;BME280;32048;49.902;22.508;2023-02-26T07:16:24;97823.06;;;1.42;100.00
37634;BME280;32048;49.902;22.508;2023-02-26T07:18:52;97823.78;;;1.48;100.00
37634;BME280;32048;49.902;22.508;2023-02-26T07:21:18;97838.50;;;1.49;100.00
37634;BME280;32048;49.902;22.508;2023-02-26T07:23:46;97839.22;;;1.54;100.00
37634;BME280;32048;49.902;22.508;2023-02-26T07:26:13;97837.41;;;1.56;100.00
37634;BME280;32048;49.902;22.508;2023-02-26T07:28:41;97849.47;;;1.58;100.00
37634;BME280;32048;49.902;22.508;2023-02-26T07:31:08;97853.66;;;1.64;100.00
37634;BME280;32048;49.902;22.508;2023-02-26T07:33:35;97838.50;;;1.77;100.00
37634;BME280;32048;49.902;22.508;2023-02-26T07:36:04;97844.28;;;1.86;100.00
37634;BME280;32048;49.902;22.508;2023-02-26T07:38:32;97854.41;;;1.96;100.00
37634;BME280;32048;49.902;22.508;2023-02-26T07:40:59;97861.25;;;1.98;100.00
37634;BME280;32048;49.902;22.508;2023-02-26T07:43:26;97867.31;;;1.99;100.00
37634;BME280;32048;49.902;22.508;2023-02-26T07:45:53;97861.50;;;1.91;100.00
37634;BME280;32048;49.902;22.508;2023-02-26T07:48:20;97877.25;;;1.86;100.00
37634;BME280;32048;49.902;22.508;2023-02-26T07:50:50;97884.38;;;1.79;100.00
37634;BME280;32048;49.902;22.508;2023-02-26T07:53:18;97891.50;;;1.74;100.00
37634;BME280;32048;49.902;22.508;2023-02-26T07:55:45;97893.38;;;1.71;100.00
37634;BME280;32048;49.902;22.508;2023-02-26T07:58:13;97908.25;;;1.65;100.00
37634;BME280;32048;49.902;22.508;2023-02-26T08:00:40;97906.69;;;1.60;100.00
37634;BME280;32048;49.902;22.508;2023-02-26T08:03:07;97912.88;;;1.56;100.00
37634;BME280;32048;49.902;22.508;2023-02-26T08:05:34;97924.38;;;1.49;100.00
37634;BME280;32048;49.902;22.508;2023-02-26T08:08:01;97934.22;;;1.37;100.00
37634;BME280;32048;49.902;22.508;2023-02-26T08:10:29;97939.72;;;1.27;100.00
37634;BME280;32048;49.902;22.508;2023-02-26T08:12:56;97952.75;;;1.25;100.00
37634;BME280;32048;49.902;22.508;2023-02-26T08:15:23;97956.31;;;1.21;100.00
37634;BME280;32048;49.902;22.508;2023-02-26T08:17:52;97959.00;;;1.19;100.00
37634;BME280;32048;49.902;22.508;2023-02-26T08:20:19;97966.81;;;1.18;100.00
37634;BME280;32048;49.902;22.508;2023-02-26T08:22:46;97960.91;;;1.13;100.00
37634;BME280;32048;49.902;22.508;2023-02-26T08:25:14;97973.81;;;1.16;100.00
37634;BME280;32048;49.902;22.508;2023-02-26T08:27:41;97973.81;;;1.16;100.00
37634;BME280;32048;49.902;22.508;2023-02-26T08:30:09;97979.81;;;1.18;100.00
37634;BME280;32048;49.902;22.508;2023-02-26T08:32:36;97974.66;;;1.16;100.00
37634;BME280;32048;49.902;22.508;2023-02-26T08:35:06;97981.63;;;1.16;100.00
37634;BME280;32048;49.902;22.508;2023-02-26T08:37:33;97981.66;;;1.14;100.00
37634;BME280;32048;49.902;22.508;2023-02-26T08:40:00;97984.25;;;1.14;100.00
37634;BME280;32048;49.902;22.508;2023-02-26T08:42:27;97989.44;;;1.14;100.00
37634;BME280;32048;49.902;22.508;2023-02-26T08:44:54;97996.41;;;1.14;100.00
37634;BME280;32048;49.902;22.508;2023-02-26T08:47:21;97993.78;;;1.15;100.00
37634;BME280;32048;49.902;22.508;2023-02-26T08:49:55;98010.25;;;1.14;100.00
37634;BME280;32048;49.902;22.508;2023-02-26T08:52:22;98008.47;;;1.16;100.00
37634;BME280;32048;49.902;22.508;2023-02-26T08:54:49;98009.28;;;1.18;100.00
37634;BME280;32048;49.902;22.508;2023-02-26T08:57:16;98018.69;;;1.24;100.00
37634;BME280;32048;49.902;22.508;2023-02-26T08:59:44;98008.16;;;1.29;100.00
37634;BME280;32048;49.902;22.508;2023-02-26T09:02:12;98017.03;;;1.21;100.00
37634;BME280;32048;49.902;22.508;2023-02-26T09:04:40;98017.16;;;1.15;100.00
37634;BME280;32048;49.902;22.508;2023-02-26T09:07:06;98011.13;;;1.15;100.00
37634;BME280;32048;49.902;22.508;2023-02-26T09:09:34;98015.09;;;1.28;100.00
37634;BME280;32048;49.902;22.508;2023-02-26T09:12:01;98012.94;;;1.44;100.00
37634;BME280;32048;49.902;22.508;2023-02-26T09:14:28;98025.47;;;1.61;100.00
37634;BME280;32048;49.902;22.508;2023-02-26T09:16:55;98024.25;;;1.74;100.00
37634;BME280;32048;49.902;22.508;2023-02-26T09:19:22;98020.63;;;1.80;100.00
37634;BME280;32048;49.902;22.508;2023-02-26T09:21:49;98022.28;;;1.82;100.00
37634;BME280;32048;49.902;22.508;2023-02-26T09:24:16;98040.53;;;1.81;100.00
37634;BME280;32048;49.902;22.508;2023-02-26T09:26:43;98049.28;;;1.78;100.00
37634;BME280;32048;49.902;22.508;2023-02-26T09:29:10;98050.97;;;1.79;100.00
37634;BME280;32048;49.902;22.508;2023-02-26T09:31:39;98057.91;;;1.80;100.00
37634;BME280;32048;49.902;22.508;2023-02-26T09:34:06;98063.25;;;1.76;100.00
37634;BME280;32048;49.902;22.508;2023-02-26T09:36:36;98073.69;;;1.74;100.00
37634;BME280;32048;49.902;22.508;2023-02-26T09:39:03;98071.03;;;1.77;100.00
37634;BME280;32048;49.902;22.508;2023-02-26T09:41:34;98073.66;;;1.76;100.00
37634;BME280;32048;49.902;22.508;2023-02-26T09:49:36;98083.94;;;1.80;100.00
37634;BME280;32048;49.902;22.508;2023-02-26T09:52:23;98084.59;;;1.89;100.00
37634;BME280;32048;49.902;22.508;2023-02-26T09:54:55;98090.72;;;1.86;100.00
37634;BME280;32048;49.902;22.508;2023-02-26T09:57:33;98095.03;;;1.87;100.00
37634;BME280;32048;49.902;22.508;2023-02-26T10:00:06;98097.66;;;1.87;100.00
37634;BME280;32048;49.902;22.508;2023-02-26T10:02:42;98095.16;;;1.82;100.00
37634;BME280;32048;49.902;22.508;2023-02-26T10:05:21;98093.31;;;1.86;100.00
37634;BME280;32048;49.902;22.508;2023-02-26T10:07:59;98102.81;;;1.89;100.00
37634;BME280;32048;49.902;22.508;2023-02-26T10:10:44;98100.03;;;1.95;100.00
37634;BME280;32048;49.902;22.508;2023-02-26T10:16:20;98116.69;;;2.20;100.00
37634;BME280;32048;49.902;22.508;2023-02-26T10:18:57;98114.66;;;2.30;100.00
37634;BME280;32048;49.902;22.508;2023-02-26T10:21:33;98114.25;;;2.44;100.00
37634;BME280;32048;49.902;22.508;2023-02-26T10:24:10;98104.84;;;2.68;100.00
37634;BME280;32048;49.902;22.508;2023-02-26T10:26:50;98107.25;;;3.02;100.00
37634;BME280;32048;49.902;22.508;2023-02-26T10:32:20;98110.97;;;3.73;93.92
37634;BME280;32048;49.902;22.508;2023-02-26T10:35:13;98123.06;;;3.76;91.40
37634;BME280;32048;49.902;22.508;2023-02-26T10:37:53;98124.97;;;3.71;89.84
37634;BME280;32048;49.902;22.508;2023-02-26T10:40:43;98125.13;;;3.41;87.56
37634;BME280;32048;49.902;22.508;2023-02-26T10:51:32;98136.69;;;3.06;90.17
37634;BME280;32048;49.902;22.508;2023-02-26T10:54:17;98155.09;;;3.01;90.60
37634;BME280;32048;49.902;22.508;2023-02-26T10:56:45;98162.00;;;3.02;91.27
37634;BME280;32048;49.902;22.508;2023-02-26T10:59:12;98164.88;;;2.95;91.87
37634;BME280;32048;49.902;22.508;2023-02-26T11:01:42;98167.00;;;2.82;93.35
37634;BME280;32048;49.902;22.508;2023-02-26T11:04:15;98179.63;;;2.66;95.26
37634;BME280;32048;49.902;22.508;2023-02-26T11:06:58;98186.34;;;2.43;97.13
37634;BME280;32048;49.902;22.508;2023-02-26T11:09:35;98180.84;;;2.23;99.72
37634;BME280;32048;49.902;22.508;2023-02-26T11:14:33;98190.34;;;1.93;100.00
37634;BME280;32048;49.902;22.508;2023-02-26T11:17:03;98189.88;;;1.77;100.00
37634;BME280;32048;49.902;22.508;2023-02-26T11:19:36;98198.97;;;1.60;100.00
37634;BME280;32048;49.902;22.508;2023-02-26T11:22:04;98193.06;;;1.54;100.00
37634;BME280;32048;49.902;22.508;2023-02-26T11:24:39;98198.31;;;1.52;100.00
37634;BME280;32048;49.902;22.508;2023-02-26T11:27:21;98197.31;;;1.58;100.00
37634;BME280;32048;49.902;22.508;2023-02-26T11:29:58;98196.16;;;1.70;100.00
37634;BME280;32048;49.902;22.508;2023-02-26T11:32:35;98195.75;;;1.85;100.00
37634;BME280;32048;49.902;22.508;2023-02-26T11:35:07;98188.41;;;2.01;100.00
37634;BME280;32048;49.902;22.508;2023-02-26T11:37:37;98199.28;;;2.15;100.00
37634;BME280;32048;49.902;22.508;2023-02-26T11:40:13;98210.16;;;2.31;100.00
37634;BME280;32048;49.902;22.508;2023-02-26T11:42:52;98206.41;;;2.41;100.00
37634;BME280;32048;49.902;22.508;2023-02-26T11:45:20;98209.59;;;2.51;100.00
37634;BME280;32048;49.902;22.508;2023-02-26T11:47:57;98210.19;;;2.61;100.00
37634;BME280;32048;49.902;22.508;2023-02-26T11:50:25;98218.63;;;2.69;100.00
37634;BME280;32048;49.902;22.508;2023-02-26T11:52:56;98218.25;;;2.83;100.00
37634;BME280;32048;49.902;22.508;2023-02-26T11:55:37;98211.66;;;2.99;100.00
37634;BME280;32048;49.902;22.508;2023-02-26T11:58:21;98220.84;;;3.12;100.00
37634;BME280;32048;49.902;22.508;2023-02-26T12:00:52;98219.88;;;3.15;98.27
37634;BME280;32048;49.902;22.508;2023-02-26T12:03:22;98232.97;;;3.13;96.52
37634;BME280;32048;49.902;22.508;2023-02-26T12:05:50;98235.63;;;3.12;96.34
37634;BME280;32048;49.902;22.508;2023-02-26T12:17:12;98237.63;;;2.74;99.62
37634;BME280;32048;49.902;22.508;2023-02-26T12:22:49;98242.56;;;2.83;96.44
37634;BME280;32048;49.902;22.508;2023-02-26T12:31:23;98251.34;;;2.81;98.11
37634;BME280;32048;49.902;22.508;2023-02-26T12:34:12;98256.69;;;2.76;97.21
37634;BME280;32048;49.902;22.508;2023-02-26T12:54:20;98284.34;;;2.80;97.38
37634;BME280;32048;49.902;22.508;2023-02-26T12:57:06;98284.28;;;2.83;97.28
37634;BME280;32048;49.902;22.508;2023-02-26T13:07:58;98295.22;;;2.96;92.95
37634;BME280;32048;49.902;22.508;2023-02-26T13:21:28;98307.41;;;2.96;89.76
37634;BME280;32048;49.902;22.508;2023-02-26T13:24:02;98316.09;;;2.96;89.52
37634;BME280;32048;49.902;22.508;2023-02-26T13:26:32;98310.91;;;2.95;89.26
37634;BME280;32048;49.902;22.508;2023-02-26T13:31:46;98310.22;;;2.88;89.24
37634;BME280;32048;49.902;22.508;2023-02-26T13:37:01;98323.66;;;2.74;89.60
37634;BME280;32048;49.902;22.508;2023-02-26T13:52:52;98334.03;;;2.76;88.82
37634;BME280;32048;49.902;22.508;2023-02-26T14:11:58;98360.63;;;2.21;92.08
37634;BME280;32048;49.902;22.508;2023-02-26T14:14:39;98358.41;;;2.06;92.57
37634;BME280;32048;49.902;22.508;2023-02-26T14:22:33;98372.38;;;1.64;96.07
37634;BME280;32048;49.902;22.508;2023-02-26T14:27:47;98376.16;;;1.50;98.18
37634;BME280;32048;49.902;22.508;2023-02-26T14:30:31;98370.22;;;1.44;99.44
37634;BME280;32048;49.902;22.508;2023-02-26T14:35:30;98379.06;;;1.37;100.00
37634;BME280;32048;49.902;22.508;2023-02-26T14:38:25;98386.13;;;1.31;100.00
37634;BME280;32048;49.902;22.508;2023-02-26T14:41:06;98392.19;;;1.30;100.00
37634;BME280;32048;49.902;22.508;2023-02-26T14:43:43;98396.56;;;1.28;99.67
37634;BME280;32048;49.902;22.508;2023-02-26T14:46:11;98401.84;;;1.24;99.43
37634;BME280;32048;49.902;22.508;2023-02-26T14:48:38;98406.22;;;1.22;98.87
37634;BME280;32048;49.902;22.508;2023-02-26T14:56:51;98420.16;;;1.18;96.58
37634;BME280;32048;49.902;22.508;2023-02-26T14:59:36;98421.91;;;1.19;96.60
37634;BME280;32048;49.902;22.508;2023-02-26T15:02:13;98432.31;;;1.19;96.55
37634;BME280;32048;49.902;22.508;2023-02-26T15:04:56;98449.59;;;1.22;96.56
37634;BME280;32048;49.902;22.508;2023-02-26T15:16:14;98456.41;;;1.28;97.79
37634;BME280;32048;49.902;22.508;2023-02-26T15:18:47;98454.63;;;1.30;98.18
37634;BME280;32048;49.902;22.508;2023-02-26T15:23:58;98466.03;;;1.22;99.41
37634;BME280;32048;49.902;22.508;2023-02-26T15:26:32;98459.16;;;1.20;99.91
37634;BME280;32048;49.902;22.508;2023-02-26T15:29:03;98475.78;;;1.11;100.00
37634;BME280;32048;49.902;22.508;2023-02-26T15:31:40;98470.75;;;1.02;100.00
37634;BME280;32048;49.902;22.508;2023-02-26T15:34:11;98477.81;;;0.95;100.00
37634;BME280;32048;49.902;22.508;2023-02-26T15:36:49;98479.72;;;0.86;100.00
37634;BME280;32048;49.902;22.508;2023-02-26T15:39:19;98487.69;;;0.75;100.00
37634;BME280;32048;49.902;22.508;2023-02-26T15:41:50;98491.28;;;0.68;100.00
37634;BME280;32048;49.902;22.508;2023-02-26T15:44:24;98482.75;;;0.59;100.00
37634;BME280;32048;49.902;22.508;2023-02-26T15:46:58;98497.59;;;0.51;100.00
37634;BME280;32048;49.902;22.508;2023-02-26T15:49:37;98508.88;;;0.50;100.00
37634;BME280;32048;49.902;22.508;2023-02-26T15:52:06;98513.25;;;0.48;100.00
37634;BME280;32048;49.902;22.508;2023-02-26T15:54:43;98518.50;;;0.44;100.00
37634;BME280;32048;49.902;22.508;2023-02-26T15:57:12;98523.72;;;0.42;100.00
37634;BME280;32048;49.902;22.508;2023-02-26T15:59:46;98534.16;;;0.39;100.00
37634;BME280;32048;49.902;22.508;2023-02-26T16:02:17;98541.03;;;0.41;100.00
37634;BME280;32048;49.902;22.508;2023-02-26T16:04:45;98542.81;;;0.39;100.00
37634;BME280;32048;49.902;22.508;2023-02-26T16:07:13;98552.34;;;0.40;100.00
37634;BME280;32048;49.902;22.508;2023-02-26T16:09:48;98564.44;;;0.40;100.00
37634;BME280;32048;49.902;22.508;2023-02-26T16:12:30;98561.00;;;0.38;100.00
37634;BME280;32048;49.902;22.508;2023-02-26T16:15:03;98567.94;;;0.36;100.00
37634;BME280;32048;49.902;22.508;2023-02-26T16:17:35;98577.50;;;0.35;100.00